createdAt,value
2017-05-19T00:00:21.927Z,20.88
2017-05-19T00:01:23.593Z,20.88
2017-05-19T00:02:25.263Z,20.85
2017-05-19T00:03:27.051Z,20.70
2017-05-19T00:04:28.647Z,20.65
2017-05-19T00:05:30.255Z,20.66
2017-05-19T00:06:31.916Z,20.70
2017-05-19T00:07:33.636Z,20.77
2017-05-19T00:08:35.375Z,20.72
2017-05-19T00:09:37.056Z,20.77
2017-05-19T00:10:38.700Z,20.75
2017-05-19T00:11:40.344Z,20.82
2017-05-19T00:12:42.022Z,20.88
2017-05-19T00:13:43.739Z,20.92
2017-05-19T00:14:45.420Z,20.90
2017-05-19T00:15:47.080Z,20.95
2017-05-19T00:16:48.701Z,20.82
2017-05-19T00:17:50.373Z,20.90
2017-05-19T00:18:52.117Z,20.80
2017-05-19T00:19:53.753Z,20.74
2017-05-19T00:20:55.425Z,20.67
2017-05-19T00:21:57.041Z,20.69
2017-05-19T00:22:58.672Z,20.70
2017-05-19T00:24:00.448Z,20.70
2017-05-19T00:25:02.119Z,20.70
2017-05-19T00:26:03.824Z,20.75
2017-05-19T00:27:05.536Z,20.63
2017-05-19T00:28:07.193Z,20.81
2017-05-19T00:29:08.860Z,20.77
2017-05-19T00:30:10.534Z,20.69
2017-05-19T00:31:12.235Z,20.70
2017-05-19T00:32:13.862Z,20.82
2017-05-19T00:33:15.569Z,20.67
2017-05-19T00:34:17.253Z,20.63
2017-05-19T00:35:18.932Z,20.60
2017-05-19T00:36:20.552Z,20.67
2017-05-19T00:37:22.193Z,20.72
2017-05-19T00:38:23.843Z,20.74
2017-05-19T00:39:25.624Z,20.70
2017-05-19T00:40:27.304Z,20.66
2017-05-19T00:41:28.914Z,20.77
2017-05-19T00:42:30.566Z,20.80
2017-05-19T00:43:32.208Z,20.66
2017-05-19T00:44:33.962Z,20.75
2017-05-19T00:45:35.634Z,20.80
2017-05-19T00:46:37.293Z,20.77
2017-05-19T00:47:39.015Z,20.85
2017-05-19T00:48:40.647Z,20.87
2017-05-19T00:49:42.322Z,20.90
2017-05-19T00:50:43.953Z,20.99
2017-05-19T00:51:45.637Z,20.95
2017-05-19T00:52:47.362Z,20.88
2017-05-19T00:53:49.017Z,20.84
2017-05-19T00:54:50.679Z,20.74
2017-05-19T00:55:52.291Z,20.59
2017-05-19T00:56:53.927Z,20.58
2017-05-19T00:57:55.757Z,20.77
2017-05-19T00:58:57.403Z,20.72
2017-05-19T00:59:59.048Z,20.85
2017-05-19T01:01:00.707Z,20.87
2017-05-19T01:02:02.339Z,20.81
2017-05-19T01:03:04.029Z,20.65
2017-05-19T01:04:05.705Z,20.78
2017-05-19T01:05:07.302Z,20.74
2017-05-19T01:06:08.922Z,20.65
2017-05-19T01:07:10.568Z,20.69
2017-05-19T01:08:12.295Z,20.87
2017-05-19T01:09:13.939Z,20.99
2017-05-19T01:10:15.623Z,20.74
2017-05-19T01:11:17.391Z,20.87
2017-05-19T01:12:18.975Z,20.75
2017-05-19T01:13:20.678Z,20.74
2017-05-19T01:14:22.300Z,20.75
2017-05-19T01:15:23.932Z,20.70
2017-05-19T01:16:25.594Z,20.84
2017-05-19T01:17:27.282Z,20.77
2017-05-19T01:18:28.939Z,20.70
2017-05-19T01:19:30.541Z,20.70
2017-05-19T01:20:32.188Z,20.58
2017-05-19T01:21:33.826Z,20.70
2017-05-19T01:22:35.499Z,20.69
2017-05-19T01:23:37.132Z,20.77
2017-05-19T01:24:38.759Z,20.87
2017-05-19T01:25:40.380Z,20.77
2017-05-19T01:26:41.994Z,20.81
2017-05-19T01:27:43.688Z,20.75
2017-05-19T01:28:45.347Z,20.65
2017-05-19T01:29:47.011Z,20.72
2017-05-19T01:30:48.650Z,20.70
2017-05-19T01:31:50.287Z,20.85
2017-05-19T01:32:52.015Z,20.70
2017-05-19T01:33:53.733Z,20.58
2017-05-19T01:34:55.419Z,20.56
2017-05-19T01:35:57.139Z,20.63
2017-05-19T01:36:58.751Z,20.72
2017-05-19T01:38:00.471Z,20.69
2017-05-19T01:39:42.164Z,20.84
2017-05-19T01:40:43.793Z,20.87
2017-05-19T01:41:45.500Z,20.87
2017-05-19T01:42:47.299Z,20.90
2017-05-19T01:43:48.975Z,21.12
2017-05-19T01:44:50.743Z,21.02
2017-05-19T01:45:52.427Z,20.88
2017-05-19T01:46:54.181Z,20.85
2017-05-19T01:47:55.894Z,20.85
2017-05-19T01:48:57.591Z,20.82
2017-05-19T01:49:59.413Z,20.70
2017-05-19T01:51:01.064Z,20.75
2017-05-19T01:52:02.767Z,20.62
2017-05-19T01:53:04.465Z,20.56
2017-05-19T01:54:06.170Z,20.58
2017-05-19T01:55:07.945Z,20.47
2017-05-19T01:56:09.668Z,20.39
2017-05-19T01:57:11.343Z,20.43
2017-05-19T01:58:13.025Z,20.37
2017-05-19T01:59:14.701Z,20.41
2017-05-19T02:00:16.401Z,20.56
2017-05-19T02:01:18.188Z,20.55
2017-05-19T02:02:19.939Z,20.44
2017-05-19T02:03:21.648Z,20.39
2017-05-19T02:04:23.351Z,20.47
2017-05-19T02:05:25.118Z,20.58
2017-05-19T02:06:26.794Z,20.62
2017-05-19T02:07:28.468Z,20.58
2017-05-19T02:08:30.148Z,20.48
2017-05-19T02:09:31.869Z,20.41
2017-05-19T02:10:33.636Z,20.47
2017-05-19T02:11:35.278Z,20.58
2017-05-19T02:12:36.982Z,20.58
2017-05-19T02:13:38.650Z,20.48
2017-05-19T02:14:40.250Z,20.55
2017-05-19T02:15:41.976Z,20.56
2017-05-19T02:16:43.663Z,20.60
2017-05-19T02:17:45.287Z,20.51
2017-05-19T02:18:46.983Z,20.44
2017-05-19T02:19:48.604Z,20.29
2017-05-19T02:20:50.347Z,20.25
2017-05-19T02:21:52.019Z,20.34
2017-05-19T02:22:53.709Z,20.41
2017-05-19T02:23:55.426Z,20.21
2017-05-19T02:24:57.088Z,20.14
2017-05-19T02:25:58.803Z,20.36
2017-05-19T02:27:00.472Z,20.39
2017-05-19T02:28:02.110Z,20.50
2017-05-19T02:29:03.747Z,20.59
2017-05-19T02:30:05.399Z,20.60
2017-05-19T02:31:07.061Z,20.60
2017-05-19T02:32:08.692Z,20.60
2017-05-19T02:33:10.368Z,20.56
2017-05-19T02:34:12.001Z,20.29
2017-05-19T02:35:13.626Z,20.32
2017-05-19T02:36:15.276Z,20.37
2017-05-19T02:37:16.981Z,20.39
2017-05-19T02:38:18.612Z,20.41
2017-05-19T02:39:20.344Z,20.44
2017-05-19T02:40:21.960Z,20.41
2017-05-19T02:41:23.668Z,20.36
2017-05-19T02:42:25.326Z,20.34
2017-05-19T02:43:26.977Z,20.37
2017-05-19T02:44:28.633Z,20.28
2017-05-19T02:45:30.270Z,20.34
2017-05-19T02:46:32.020Z,20.32
2017-05-19T02:47:33.633Z,20.32
2017-05-19T02:48:35.257Z,20.26
2017-05-19T02:49:36.894Z,20.28
2017-05-19T02:50:38.601Z,20.21
2017-05-19T02:51:40.302Z,20.37
2017-05-19T02:52:41.915Z,20.36
2017-05-19T02:53:43.540Z,20.25
2017-05-19T02:54:45.290Z,20.24
2017-05-19T02:55:46.934Z,20.25
2017-05-19T02:56:48.639Z,20.16
2017-05-19T02:57:50.357Z,20.36
2017-05-19T02:58:52.011Z,20.19
2017-05-19T02:59:53.724Z,20.11
2017-05-19T03:00:55.384Z,20.24
2017-05-19T03:01:57.096Z,20.31
2017-05-19T03:02:58.696Z,20.40
2017-05-19T03:04:00.311Z,20.51
2017-05-19T03:05:01.906Z,20.41
2017-05-19T03:06:03.590Z,20.31
2017-05-19T03:07:05.352Z,20.31
2017-05-19T03:08:06.988Z,20.22
2017-05-19T03:09:08.623Z,20.34
2017-05-19T03:10:10.294Z,20.28
2017-05-19T03:11:11.971Z,20.39
2017-05-19T03:12:13.712Z,20.44
2017-05-19T03:13:15.390Z,20.47
2017-05-19T03:14:17.027Z,20.59
2017-05-19T03:15:18.706Z,20.40
2017-05-19T03:16:20.406Z,20.39
2017-05-19T03:17:22.121Z,20.31
2017-05-19T03:18:23.750Z,20.28
2017-05-19T03:19:25.434Z,20.25
2017-05-19T03:20:27.099Z,20.21
2017-05-19T03:21:28.809Z,20.31
2017-05-19T03:22:30.502Z,20.29
2017-05-19T03:24:12.813Z,20.21
2017-05-19T03:25:14.441Z,20.16
2017-05-19T03:26:16.104Z,20.24
2017-05-19T03:27:17.768Z,20.16
2017-05-19T03:28:19.483Z,20.16
2017-05-19T03:29:21.166Z,20.16
2017-05-19T03:30:22.797Z,20.11
2017-05-19T03:31:24.472Z,20.06
2017-05-19T03:32:26.180Z,19.95
2017-05-19T03:33:27.935Z,19.88
2017-05-19T03:34:29.689Z,20.03
2017-05-19T03:35:31.335Z,20.21
2017-05-19T03:36:32.961Z,20.19
2017-05-19T03:37:34.611Z,20.24
2017-05-19T03:38:36.275Z,20.16
2017-05-19T03:39:37.932Z,20.04
2017-05-19T03:40:39.574Z,20.14
2017-05-19T03:41:41.215Z,20.16
2017-05-19T03:42:42.890Z,20.21
2017-05-19T03:43:44.665Z,20.18
2017-05-19T03:44:46.339Z,20.24
2017-05-19T03:45:47.897Z,20.16
2017-05-19T03:46:49.528Z,20.32
2017-05-19T03:47:51.226Z,20.26
2017-05-19T03:48:52.918Z,20.37
2017-05-19T03:49:54.551Z,20.26
2017-05-19T03:50:56.190Z,20.34
2017-05-19T03:51:57.840Z,20.31
2017-05-19T03:52:59.505Z,20.32
2017-05-19T03:54:01.245Z,20.37
2017-05-19T03:55:02.911Z,20.31
2017-05-19T03:56:04.534Z,20.32
2017-05-19T03:57:06.217Z,20.24
2017-05-19T03:58:07.833Z,20.16
2017-05-19T03:59:09.599Z,20.32
2017-05-19T04:00:11.295Z,20.25
2017-05-19T04:01:12.895Z,20.37
2017-05-19T04:02:14.555Z,20.24
2017-05-19T04:03:16.210Z,20.24
2017-05-19T04:04:17.926Z,20.31
2017-05-19T04:05:19.614Z,20.29
2017-05-19T04:06:21.301Z,20.31
2017-05-19T04:07:22.984Z,20.34
2017-05-19T04:08:24.611Z,20.26
2017-05-19T04:09:26.299Z,20.29
2017-05-19T04:10:27.955Z,20.21
2017-05-19T04:11:29.610Z,20.25
2017-05-19T04:12:31.265Z,20.19
2017-05-19T04:13:32.927Z,20.11
2017-05-19T04:14:34.641Z,20.16
2017-05-19T04:16:16.760Z,20.29
2017-05-19T04:17:18.388Z,20.29
2017-05-19T04:18:20.057Z,20.39
2017-05-19T04:19:21.697Z,20.41
2017-05-19T04:20:23.365Z,20.43
2017-05-19T04:21:25.217Z,20.41
2017-05-19T04:22:26.850Z,20.34
2017-05-19T04:23:28.500Z,20.36
2017-05-19T04:24:30.164Z,20.36
2017-05-19T04:25:31.806Z,20.41
2017-05-19T04:26:33.492Z,20.48
2017-05-19T04:27:35.140Z,20.47
2017-05-19T04:28:36.797Z,20.40
2017-05-19T04:29:38.409Z,20.32
2017-05-19T04:30:40.031Z,20.36
2017-05-19T04:31:41.731Z,20.34
2017-05-19T04:32:43.361Z,20.36
2017-05-19T04:33:45.030Z,20.40
2017-05-19T04:34:46.636Z,20.31
2017-05-19T04:35:48.275Z,20.28
2017-05-19T04:36:50.011Z,20.34
2017-05-19T04:37:51.713Z,20.36
2017-05-19T04:38:53.314Z,20.34
2017-05-19T04:39:54.997Z,20.32
2017-05-19T04:40:56.689Z,20.31
2017-05-19T04:41:58.401Z,20.31
2017-05-19T04:43:00.100Z,20.36
2017-05-19T04:44:01.741Z,20.39
2017-05-19T04:45:03.423Z,20.37
2017-05-19T04:46:05.155Z,20.39
2017-05-19T04:47:06.888Z,20.44
2017-05-19T04:48:08.560Z,20.39
2017-05-19T04:49:10.242Z,20.48
2017-05-19T04:50:11.959Z,20.44
2017-05-19T04:51:13.665Z,20.44
2017-05-19T04:52:15.407Z,20.41
2017-05-19T04:53:17.062Z,20.44
2017-05-19T04:54:18.749Z,20.34
2017-05-19T04:55:20.480Z,20.31
2017-05-19T04:56:22.161Z,20.32
2017-05-19T04:57:23.902Z,20.34
2017-05-19T04:58:25.540Z,20.25
2017-05-19T04:59:27.175Z,20.14
2017-05-19T05:00:28.892Z,20.26
2017-05-19T05:01:31.554Z,20.25
2017-05-19T05:02:33.260Z,20.19
2017-05-19T05:03:34.978Z,20.16
2017-05-19T05:04:36.698Z,20.18
2017-05-19T05:05:38.472Z,20.09
2017-05-19T05:06:40.208Z,20.07
2017-05-19T05:07:42.006Z,20.03
2017-05-19T05:08:43.686Z,20.19
2017-05-19T05:09:45.426Z,20.10
2017-05-19T05:10:47.143Z,20.13
2017-05-19T05:11:48.833Z,20.10
2017-05-19T05:12:50.625Z,20.13
2017-05-19T05:13:52.402Z,20.11
2017-05-19T05:14:54.168Z,20.14
2017-05-19T05:15:55.863Z,20.16
2017-05-19T05:16:57.574Z,20.21
2017-05-19T05:17:59.353Z,20.19
2017-05-19T05:19:01.113Z,20.21
2017-05-19T05:20:02.875Z,20.11
2017-05-19T05:21:04.533Z,20.02
2017-05-19T05:22:06.173Z,20.06
2017-05-19T05:23:07.922Z,19.99
2017-05-19T05:24:09.652Z,20.02
2017-05-19T05:25:11.351Z,20.11
2017-05-19T05:26:13.038Z,20.06
2017-05-19T05:27:14.677Z,20.13
2017-05-19T05:28:16.467Z,20.11
2017-05-19T05:29:18.119Z,19.99
2017-05-19T05:30:19.754Z,19.95
2017-05-19T05:31:21.719Z,19.99
2017-05-19T05:32:23.337Z,20.03
2017-05-19T05:33:25.917Z,20.14
2017-05-19T05:34:28.308Z,20.21
2017-05-19T05:35:30.623Z,20.29
2017-05-19T05:36:32.404Z,20.22
2017-05-19T05:37:34.090Z,20.26
2017-05-19T05:38:36.937Z,19.85
2017-05-19T05:39:38.608Z,19.95
2017-05-19T05:40:40.278Z,20.03
2017-05-19T05:41:43.395Z,20.02
2017-05-19T05:42:45.046Z,20.00
2017-05-19T05:43:46.782Z,20.02
2017-05-19T05:44:49.578Z,20.00
2017-05-19T05:45:51.353Z,20.02
2017-05-19T05:46:53.139Z,20.13
2017-05-19T05:47:54.750Z,20.16
2017-05-19T05:48:56.374Z,20.00
2017-05-19T05:49:58.037Z,20.00
2017-05-19T05:50:59.686Z,20.16
2017-05-19T05:52:01.428Z,20.11
2017-05-19T05:53:03.066Z,20.06
2017-05-19T05:54:04.653Z,20.06
2017-05-19T05:55:06.338Z,20.07
2017-05-19T05:56:08.033Z,20.03
2017-05-19T05:57:09.750Z,20.18
2017-05-19T05:58:50.914Z,20.25
2017-05-19T05:59:52.540Z,20.39
2017-05-19T06:00:54.313Z,20.36
2017-05-19T06:01:55.957Z,20.44
2017-05-19T06:02:57.627Z,20.40
2017-05-19T06:03:59.351Z,20.29
2017-05-19T06:05:01.016Z,20.26
2017-05-19T06:06:02.700Z,20.26
2017-05-19T06:07:04.375Z,20.31
2017-05-19T06:08:06.034Z,20.37
2017-05-19T06:09:07.746Z,20.37
2017-05-19T06:10:09.402Z,20.37
2017-05-19T06:11:11.036Z,20.39
2017-05-19T06:12:12.724Z,20.36
2017-05-19T06:13:14.374Z,20.36
2017-05-19T06:14:16.073Z,20.31
2017-05-19T06:15:17.816Z,20.28
2017-05-19T06:16:19.451Z,20.25
2017-05-19T06:17:21.135Z,20.22
2017-05-19T06:18:22.784Z,20.31
2017-05-19T06:19:24.492Z,20.32
2017-05-19T06:20:26.153Z,20.29
2017-05-19T06:21:27.812Z,20.36
2017-05-19T06:22:29.519Z,20.43
2017-05-19T06:23:31.188Z,20.37
2017-05-19T06:24:32.941Z,20.29
2017-05-19T06:25:34.595Z,20.31
2017-05-19T06:26:36.295Z,20.43
2017-05-19T06:27:37.962Z,20.39
2017-05-19T06:28:39.594Z,20.48
2017-05-19T06:29:41.297Z,20.41
2017-05-19T06:30:42.988Z,20.44
2017-05-19T06:31:44.626Z,20.34
2017-05-19T06:32:46.283Z,20.34
2017-05-19T06:33:47.937Z,20.39
2017-05-19T06:34:49.704Z,20.40
2017-05-19T06:35:51.467Z,20.44
2017-05-19T06:36:56.381Z,20.40
2017-05-19T06:37:58.205Z,20.41
2017-05-19T06:39:00.785Z,20.40
2017-05-19T06:40:02.594Z,20.31
2017-05-19T06:41:04.301Z,20.31
2017-05-19T06:42:05.965Z,20.41
2017-05-19T06:43:07.697Z,20.44
2017-05-19T06:44:09.450Z,20.48
2017-05-19T06:45:11.204Z,20.44
2017-05-19T06:46:12.874Z,20.52
2017-05-19T06:47:14.547Z,20.51
2017-05-19T06:48:16.189Z,20.58
2017-05-19T06:49:18.093Z,20.67
2017-05-19T06:51:02.932Z,20.85
2017-05-19T06:52:45.624Z,20.84
2017-05-19T06:53:47.368Z,20.87
2017-05-19T06:54:49.086Z,20.97
2017-05-19T06:55:51.522Z,21.05
2017-05-19T06:56:53.933Z,21.15
2017-05-19T06:57:55.776Z,21.03
2017-05-19T06:58:57.468Z,21.11
2017-05-19T06:59:59.187Z,21.12
2017-05-19T07:01:00.874Z,21.14
2017-05-19T07:02:02.519Z,21.05
2017-05-19T07:03:04.291Z,21.12
2017-05-19T07:04:06.208Z,21.12
2017-05-19T07:05:07.986Z,21.18
2017-05-19T07:06:09.681Z,21.12
2017-05-19T07:07:11.436Z,21.21
2017-05-19T07:08:13.402Z,21.22
2017-05-19T07:09:15.181Z,21.27
2017-05-19T07:10:16.907Z,21.21
2017-05-19T07:11:18.684Z,21.25
2017-05-19T07:12:21.234Z,21.22
2017-05-19T07:13:23.100Z,21.24
2017-05-19T07:14:24.948Z,21.21
2017-05-19T07:15:26.634Z,21.25
2017-05-19T07:16:28.385Z,21.25
2017-05-19T07:17:30.104Z,21.20
2017-05-19T07:18:32.049Z,21.24
2017-05-19T07:19:33.892Z,21.25
2017-05-19T07:20:35.564Z,21.27
2017-05-19T07:21:37.258Z,21.25
2017-05-19T07:22:39.641Z,21.33
2017-05-19T07:23:41.487Z,21.32
2017-05-19T07:24:43.295Z,21.40
2017-05-19T07:25:45.037Z,21.40
2017-05-19T07:26:47.475Z,21.39
2017-05-19T07:27:49.230Z,21.35
2017-05-19T07:28:51.001Z,21.32
2017-05-19T07:29:53.015Z,21.43
2017-05-19T07:30:54.757Z,21.39
2017-05-19T07:31:56.454Z,21.42
2017-05-19T07:32:58.178Z,21.40
2017-05-19T07:34:00.662Z,21.39
2017-05-19T07:35:02.358Z,21.40
2017-05-19T07:36:04.772Z,21.42
2017-05-19T07:37:06.445Z,21.45
2017-05-19T07:38:08.813Z,21.40
2017-05-19T07:39:10.545Z,21.40
2017-05-19T07:40:12.322Z,21.40
2017-05-19T07:41:14.913Z,21.43
2017-05-19T07:42:16.631Z,21.40
2017-05-19T07:44:03.006Z,21.48
2017-05-19T07:45:04.719Z,21.42
2017-05-19T07:46:06.426Z,21.46
2017-05-19T07:47:08.112Z,21.40
2017-05-19T07:48:10.430Z,21.52
2017-05-19T07:49:12.230Z,21.40
2017-05-19T07:50:14.038Z,21.51
2017-05-19T07:51:15.768Z,21.45
2017-05-19T07:52:17.468Z,21.48
2017-05-19T07:53:19.293Z,21.45
2017-05-19T07:54:22.773Z,21.51
2017-05-19T07:55:24.652Z,21.42
2017-05-19T07:56:26.977Z,21.57
2017-05-19T07:57:28.758Z,21.45
2017-05-19T07:58:30.520Z,21.37
2017-05-19T07:59:32.355Z,21.42
2017-05-19T08:00:34.129Z,21.50
2017-05-19T08:01:35.843Z,21.40
2017-05-19T08:02:38.532Z,21.48
2017-05-19T08:03:40.228Z,21.48
2017-05-19T08:04:41.966Z,21.46
2017-05-19T08:05:43.641Z,21.48
2017-05-19T08:06:45.290Z,21.50
2017-05-19T08:07:46.953Z,21.50
2017-05-19T08:08:48.605Z,21.51
2017-05-19T08:09:50.377Z,21.50
2017-05-19T08:10:52.056Z,21.52
2017-05-19T08:11:53.793Z,21.51
2017-05-19T08:12:55.539Z,21.54
2017-05-19T08:13:57.252Z,21.45
2017-05-19T08:14:58.978Z,21.54
2017-05-19T08:16:00.671Z,21.52
2017-05-19T08:17:02.469Z,21.51
2017-05-19T08:18:04.230Z,21.54
2017-05-19T08:19:06.802Z,21.48
2017-05-19T08:20:08.564Z,21.50
2017-05-19T08:21:10.293Z,21.46
2017-05-19T08:22:12.040Z,21.46
2017-05-19T08:23:13.741Z,21.42
2017-05-19T08:24:15.442Z,21.43
2017-05-19T08:25:17.191Z,21.51
2017-05-19T08:26:18.981Z,21.50
2017-05-19T08:27:20.670Z,21.46
2017-05-19T08:28:22.328Z,21.43
2017-05-19T08:29:24.039Z,21.51
2017-05-19T08:30:25.744Z,21.50
2017-05-19T08:31:27.516Z,21.51
2017-05-19T08:32:29.204Z,21.50
2017-05-19T08:33:30.952Z,21.45
2017-05-19T08:35:12.213Z,21.48
2017-05-19T08:36:53.935Z,21.51
2017-05-19T08:37:55.607Z,21.55
2017-05-19T08:38:57.510Z,21.46
2017-05-19T08:39:59.132Z,21.42
2017-05-19T08:41:00.806Z,21.48
2017-05-19T08:42:02.525Z,21.48
2017-05-19T08:43:04.184Z,21.51
2017-05-19T08:44:05.889Z,21.52
2017-05-19T08:45:07.679Z,21.55
2017-05-19T08:46:09.318Z,21.54
2017-05-19T08:47:10.973Z,21.48
2017-05-19T08:48:12.669Z,21.46
2017-05-19T08:49:14.305Z,21.46
2017-05-19T08:50:16.081Z,21.43
2017-05-19T08:51:17.761Z,21.52
2017-05-19T08:52:19.451Z,21.45
2017-05-19T08:53:21.093Z,21.48
2017-05-19T08:54:22.733Z,21.40
2017-05-19T08:55:24.523Z,21.45
2017-05-19T08:56:26.209Z,21.45
2017-05-19T08:57:27.823Z,21.51
2017-05-19T08:58:29.513Z,21.51
2017-05-19T08:59:31.197Z,21.46
2017-05-19T09:00:32.957Z,21.46
2017-05-19T09:01:34.667Z,21.43
2017-05-19T09:02:36.348Z,21.43
2017-05-19T09:03:38.025Z,21.45
2017-05-19T09:04:39.814Z,21.50
2017-05-19T09:05:41.627Z,21.55
2017-05-19T09:06:43.276Z,21.52
2017-05-19T09:07:45.075Z,21.50
2017-05-19T09:08:46.677Z,21.51
2017-05-19T09:09:48.373Z,21.43
2017-05-19T09:10:50.136Z,21.40
2017-05-19T09:11:51.788Z,21.54
2017-05-19T09:12:53.535Z,21.42
2017-05-19T09:13:55.289Z,21.48
2017-05-19T09:14:57.125Z,21.55
2017-05-19T09:15:58.872Z,21.50
2017-05-19T09:17:00.569Z,21.52
2017-05-19T09:18:02.270Z,21.46
2017-05-19T09:19:03.958Z,21.54
2017-05-19T09:20:05.666Z,21.57
2017-05-19T09:21:07.405Z,21.48
2017-05-19T09:22:09.085Z,21.48
2017-05-19T09:23:10.779Z,21.39
2017-05-19T09:24:12.482Z,21.40
2017-05-19T09:25:14.175Z,21.39
2017-05-19T09:26:15.915Z,21.43
2017-05-19T09:27:57.111Z,21.37
2017-05-19T09:29:38.306Z,21.46
2017-05-19T09:30:40.043Z,21.52
2017-05-19T09:31:41.821Z,21.43
2017-05-19T09:32:43.569Z,21.51
2017-05-19T09:33:45.177Z,21.55
2017-05-19T09:34:46.971Z,21.51
2017-05-19T09:35:48.650Z,21.54
2017-05-19T09:36:50.314Z,21.48
2017-05-19T09:37:52.000Z,21.52
2017-05-19T09:38:53.691Z,21.55
2017-05-19T09:39:55.415Z,21.51
2017-05-19T09:40:57.090Z,21.55
2017-05-19T09:41:58.857Z,21.46
2017-05-19T09:43:00.545Z,21.52
2017-05-19T09:44:02.235Z,21.54
2017-05-19T09:45:03.980Z,21.57
2017-05-19T09:46:05.719Z,21.61
2017-05-19T09:47:07.389Z,21.50
2017-05-19T09:48:09.080Z,21.54
2017-05-19T09:49:10.766Z,21.48
2017-05-19T09:50:12.508Z,21.43
2017-05-19T09:51:14.217Z,21.52
2017-05-19T09:52:15.958Z,21.52
2017-05-19T09:53:17.610Z,21.54
2017-05-19T09:54:19.314Z,21.50
2017-05-19T09:55:21.094Z,21.48
2017-05-19T09:56:22.786Z,21.48
2017-05-19T09:57:24.458Z,21.48
2017-05-19T09:58:26.179Z,21.54
2017-05-19T09:59:27.783Z,21.51
2017-05-19T10:00:29.484Z,21.51
2017-05-19T10:01:31.182Z,21.52
2017-05-19T10:02:32.840Z,21.57
2017-05-19T10:03:34.724Z,21.58
2017-05-19T10:04:37.115Z,21.57
2017-05-19T10:05:38.155Z,21.57
2017-05-19T10:06:39.867Z,21.55
2017-05-19T10:07:41.510Z,21.55
2017-05-19T10:08:43.131Z,21.54
2017-05-19T10:09:44.845Z,21.51
2017-05-19T10:10:46.596Z,21.60
2017-05-19T10:11:48.287Z,21.61
2017-05-19T10:12:50.029Z,21.55
2017-05-19T10:13:51.756Z,21.67
2017-05-19T10:14:53.353Z,21.70
2017-05-19T10:15:55.118Z,21.62
2017-05-19T10:16:56.925Z,21.67
2017-05-19T10:17:58.559Z,21.62
2017-05-19T10:19:00.231Z,21.62
2017-05-19T10:20:41.423Z,21.61
2017-05-19T10:21:43.084Z,21.67
2017-05-19T10:22:44.751Z,21.66
2017-05-19T10:23:46.465Z,21.58
2017-05-19T10:24:48.144Z,21.70
2017-05-19T10:25:49.813Z,21.66
2017-05-19T10:26:51.488Z,21.67
2017-05-19T10:27:53.291Z,21.61
2017-05-19T10:28:54.935Z,21.72
2017-05-19T10:29:56.678Z,21.72
2017-05-19T10:30:58.296Z,21.77
2017-05-19T10:31:59.882Z,21.72
2017-05-19T10:33:01.585Z,21.72
2017-05-19T10:34:03.279Z,21.72
2017-05-19T10:35:05.024Z,21.73
2017-05-19T10:36:06.658Z,21.75
2017-05-19T10:37:08.361Z,21.80
2017-05-19T10:38:10.340Z,21.83
2017-05-19T10:39:12.167Z,21.85
2017-05-19T10:40:14.103Z,21.80
2017-05-19T10:41:15.850Z,21.85
2017-05-19T10:42:17.727Z,21.83
2017-05-19T10:43:19.529Z,21.82
2017-05-19T10:44:21.168Z,21.89
2017-05-19T10:45:22.917Z,21.85
2017-05-19T10:46:24.575Z,21.85
2017-05-19T10:47:26.227Z,21.80
2017-05-19T10:48:27.890Z,21.89
2017-05-19T10:49:29.554Z,21.85
2017-05-19T10:50:31.287Z,21.77
2017-05-19T10:51:32.996Z,21.82
2017-05-19T10:52:34.689Z,21.80
2017-05-19T10:53:36.357Z,21.82
2017-05-19T10:54:38.069Z,21.91
2017-05-19T10:55:39.930Z,21.82
2017-05-19T10:56:41.672Z,21.80
2017-05-19T10:57:43.414Z,21.87
2017-05-19T10:58:45.212Z,21.85
2017-05-19T10:59:47.056Z,21.87
2017-05-19T11:00:48.832Z,21.92
2017-05-19T11:01:50.677Z,21.95
2017-05-19T11:02:52.500Z,21.98
2017-05-19T11:03:54.340Z,21.80
2017-05-19T11:04:56.083Z,21.95
2017-05-19T11:05:57.870Z,21.92
2017-05-19T11:06:59.558Z,21.93
2017-05-19T11:08:01.248Z,21.85
2017-05-19T11:09:02.993Z,21.98
2017-05-19T11:10:04.759Z,21.99
2017-05-19T11:11:06.493Z,21.95
2017-05-19T11:12:08.151Z,21.79
2017-05-19T11:13:49.408Z,21.95
2017-05-19T11:14:51.045Z,21.91
2017-05-19T11:15:52.713Z,21.83
2017-05-19T11:16:54.430Z,21.85
2017-05-19T11:17:56.095Z,21.82
2017-05-19T11:18:57.878Z,21.82
2017-05-19T11:19:59.580Z,21.77
2017-05-19T11:21:01.297Z,21.89
2017-05-19T11:22:03.087Z,21.77
2017-05-19T11:23:04.836Z,21.77
2017-05-19T11:24:06.583Z,21.85
2017-05-19T11:25:08.313Z,21.85
2017-05-19T11:26:10.081Z,21.82
2017-05-19T11:27:11.877Z,21.82
2017-05-19T11:28:13.616Z,21.82
2017-05-19T11:29:15.296Z,21.72
2017-05-19T11:30:17.069Z,21.67
2017-05-19T11:31:18.777Z,21.79
2017-05-19T11:32:20.557Z,21.75
2017-05-19T11:33:22.332Z,21.75
2017-05-19T11:34:24.067Z,21.69
2017-05-19T11:35:25.812Z,21.67
2017-05-19T11:36:27.540Z,21.70
2017-05-19T11:37:29.260Z,21.72
2017-05-19T11:38:31.070Z,21.76
2017-05-19T11:39:32.830Z,21.62
2017-05-19T11:40:34.542Z,21.64
2017-05-19T11:41:36.283Z,21.61
2017-05-19T11:42:38.048Z,21.64
2017-05-19T11:43:39.853Z,21.61
2017-05-19T11:44:41.602Z,21.55
2017-05-19T11:45:43.307Z,21.52
2017-05-19T11:46:44.942Z,21.50
2017-05-19T11:47:46.614Z,21.61
2017-05-19T11:48:48.426Z,21.54
2017-05-19T11:49:50.079Z,21.42
2017-05-19T11:50:51.762Z,21.42
2017-05-19T11:51:53.492Z,21.50
2017-05-19T11:52:55.190Z,21.39
2017-05-19T11:53:56.983Z,21.48
2017-05-19T11:54:58.619Z,21.48
2017-05-19T11:56:00.302Z,21.54
2017-05-19T11:57:01.949Z,21.48
2017-05-19T11:58:03.634Z,21.46
2017-05-19T11:59:05.350Z,21.54
2017-05-19T12:00:07.056Z,21.51
2017-05-19T12:01:08.726Z,21.46
2017-05-19T12:02:10.404Z,21.37
2017-05-19T12:03:12.089Z,21.48
2017-05-19T12:04:53.333Z,21.42
2017-05-19T12:05:54.984Z,21.36
2017-05-19T12:06:56.748Z,21.42
2017-05-19T12:07:58.434Z,21.39
2017-05-19T12:09:00.091Z,21.35
2017-05-19T12:10:01.777Z,21.39
2017-05-19T12:11:03.429Z,21.39
2017-05-19T12:12:05.068Z,21.40
2017-05-19T12:13:06.733Z,21.32
2017-05-19T12:14:08.382Z,21.37
2017-05-19T12:15:10.102Z,21.32
2017-05-19T12:16:11.794Z,21.33
2017-05-19T12:17:13.496Z,21.37
2017-05-19T12:18:15.133Z,21.40
2017-05-19T12:19:16.738Z,21.24
2017-05-19T12:20:18.529Z,21.39
2017-05-19T12:21:20.271Z,21.33
2017-05-19T12:22:21.907Z,21.30
2017-05-19T12:23:23.525Z,21.25
2017-05-19T12:24:25.219Z,21.27
2017-05-19T12:25:26.941Z,21.24
2017-05-19T12:26:28.601Z,21.27
2017-05-19T12:27:30.261Z,21.27
2017-05-19T12:28:31.951Z,21.39
2017-05-19T12:29:33.721Z,21.33
2017-05-19T12:30:35.448Z,21.21
2017-05-19T12:31:37.128Z,21.30
2017-05-19T12:32:38.763Z,21.29
2017-05-19T12:33:40.455Z,21.27
2017-05-19T12:34:42.106Z,21.25
2017-05-19T12:35:43.880Z,21.32
2017-05-19T12:36:45.571Z,21.24
2017-05-19T12:37:47.235Z,21.25
2017-05-19T12:38:48.946Z,21.22
2017-05-19T12:39:50.595Z,21.20
2017-05-19T12:40:52.434Z,21.24
2017-05-19T12:41:54.119Z,21.11
2017-05-19T12:42:55.883Z,21.17
2017-05-19T12:43:58.700Z,21.22
2017-05-19T12:45:00.372Z,21.25
2017-05-19T12:46:02.160Z,21.25
2017-05-19T12:47:03.886Z,21.21
2017-05-19T12:48:05.601Z,21.25
2017-05-19T12:49:07.400Z,21.29
2017-05-19T12:50:09.090Z,21.25
2017-05-19T12:51:10.845Z,21.29
2017-05-19T12:52:12.590Z,21.20
2017-05-19T12:53:14.361Z,21.27
2017-05-19T12:54:16.136Z,21.24
2017-05-19T12:55:17.863Z,21.22
2017-05-19T12:56:59.159Z,21.25
2017-05-19T12:58:00.820Z,21.12
2017-05-19T12:59:02.494Z,21.25
2017-05-19T13:00:04.221Z,21.21
2017-05-19T13:01:05.950Z,21.20
2017-05-19T13:02:07.662Z,21.21
2017-05-19T13:03:09.352Z,21.24
2017-05-19T13:04:11.081Z,21.25
2017-05-19T13:05:12.757Z,21.17
2017-05-19T13:06:14.493Z,21.17
2017-05-19T13:07:16.273Z,21.17
2017-05-19T13:08:17.970Z,21.17
2017-05-19T13:09:19.633Z,21.15
2017-05-19T13:10:21.316Z,21.11
2017-05-19T13:11:23.005Z,21.11
2017-05-19T13:12:24.757Z,21.15
2017-05-19T13:13:26.498Z,21.14
2017-05-19T13:14:28.197Z,21.09
2017-05-19T13:15:29.892Z,21.14
2017-05-19T13:16:31.568Z,21.09
2017-05-19T13:17:33.277Z,21.14
2017-05-19T13:18:35.033Z,21.07
2017-05-19T13:19:36.724Z,21.09
2017-05-19T13:20:38.438Z,21.05
2017-05-19T13:21:40.122Z,21.11
2017-05-19T13:22:41.851Z,21.15
2017-05-19T13:23:43.570Z,21.03
2017-05-19T13:24:45.204Z,21.12